sensor_id;sensor_type;location;lat;lon;timestamp;pressure;altitude;pressure_sealevel;temperature;humidity
67052;BME280;53957;47.222;18.670;2023-04-26T00:01:04;99575.72;;;7.76;100.00
67052;BME280;53957;47.222;18.670;2023-04-26T00:04:07;99586.81;;;7.83;100.00
67052;BME280;53957;47.222;18.670;2023-04-26T00:07:10;99582.50;;;7.93;100.00
67052;BME280;53957;47.222;18.670;2023-04-26T00:10:15;99587.16;;;8.01;100.00
67052;BME280;53957;47.222;18.670;2023-04-26T00:13:18;99587.41;;;8.04;100.00
67052;BME280;53957;47.222;18.670;2023-04-26T00:16:21;99579.25;;;7.96;100.00
67052;BME280;53957;47.222;18.670;2023-04-26T00:19:24;99587.88;;;7.82;100.00
67052;BME280;53957;47.222;18.670;2023-04-26T00:22:27;99588.06;;;7.91;100.00
67052;BME280;53957;47.222;18.670;2023-04-26T00:25:30;99586.56;;;7.80;100.00
67052;BME280;53957;47.222;18.670;2023-04-26T00:28:33;99591.88;;;7.80;100.00
67052;BME280;53957;47.222;18.670;2023-04-26T00:31:36;99597.97;;;7.80;100.00
67052;BME280;53957;47.222;18.670;2023-04-26T00:34:39;99601.00;;;7.68;100.00
67052;BME280;53957;47.222;18.670;2023-04-26T00:37:42;99598.13;;;7.65;100.00
67052;BME280;53957;47.222;18.670;2023-04-26T00:40:45;99597.84;;;7.66;100.00
67052;BME280;53957;47.222;18.670;2023-04-26T00:43:48;99596.28;;;7.60;100.00
67052;BME280;53957;47.222;18.670;2023-04-26T00:46:52;99591.97;;;7.69;100.00
67052;BME280;53957;47.222;18.670;2023-04-26T00:49:55;99595.56;;;7.54;100.00
67052;BME280;53957;47.222;18.670;2023-04-26T00:53:00;99599.53;;;7.52;100.00
67052;BME280;53957;47.222;18.670;2023-04-26T00:56:08;99595.81;;;7.53;100.00
67052;BME280;53957;47.222;18.670;2023-04-26T00:59:12;99601.62;;;7.55;100.00
67052;BME280;53957;47.222;18.670;2023-04-26T01:02:15;99604.84;;;7.52;100.00
67052;BME280;53957;47.222;18.670;2023-04-26T01:05:19;99603.28;;;7.46;100.00
67052;BME280;53957;47.222;18.670;2023-04-26T01:08:22;99611.28;;;7.40;100.00
67052;BME280;53957;47.222;18.670;2023-04-26T01:11:26;99607.31;;;7.38;100.00
67052;BME280;53957;47.222;18.670;2023-04-26T01:14:29;99610.47;;;7.45;100.00
67052;BME280;53957;47.222;18.670;2023-04-26T01:17:34;99605.50;;;7.33;100.00
67052;BME280;53957;47.222;18.670;2023-04-26T01:20:40;99618.75;;;7.33;100.00
67052;BME280;53957;47.222;18.670;2023-04-26T01:23:44;99613.44;;;7.38;100.00
67052;BME280;53957;47.222;18.670;2023-04-26T01:26:47;99619.59;;;7.29;100.00
67052;BME280;53957;47.222;18.670;2023-04-26T01:29:50;99617.72;;;7.29;100.00
67052;BME280;53957;47.222;18.670;2023-04-26T01:32:53;99622.75;;;7.31;100.00
67052;BME280;53957;47.222;18.670;2023-04-26T01:35:59;99623.06;;;7.24;100.00
67052;BME280;53957;47.222;18.670;2023-04-26T01:39:03;99625.22;;;7.17;100.00
67052;BME280;53957;47.222;18.670;2023-04-26T01:42:06;99628.41;;;7.19;100.00
67052;BME280;53957;47.222;18.670;2023-04-26T01:45:09;99645.69;;;7.11;100.00
67052;BME280;53957;47.222;18.670;2023-04-26T01:48:28;99643.03;;;7.16;100.00
67052;BME280;53957;47.222;18.670;2023-04-26T01:51:31;99643.63;;;7.03;100.00
67052;BME280;53957;47.222;18.670;2023-04-26T01:54:34;99657.16;;;6.96;100.00
67052;BME280;53957;47.222;18.670;2023-04-26T01:57:37;99654.50;;;6.96;100.00
67052;BME280;53957;47.222;18.670;2023-04-26T02:00:40;99658.72;;;7.07;100.00
67052;BME280;53957;47.222;18.670;2023-04-26T02:03:44;99661.38;;;7.07;100.00
67052;BME280;53957;47.222;18.670;2023-04-26T02:06:47;99663.44;;;7.16;100.00
67052;BME280;53957;47.222;18.670;2023-04-26T02:09:51;99662.94;;;7.14;100.00
67052;BME280;53957;47.222;18.670;2023-04-26T02:12:54;99670.78;;;7.29;100.00
67052;BME280;53957;47.222;18.670;2023-04-26T02:15:57;99671.84;;;7.28;100.00
67052;BME280;53957;47.222;18.670;2023-04-26T02:19:01;99671.03;;;7.33;100.00
67052;BME280;53957;47.222;18.670;2023-04-26T02:22:06;99673.16;;;7.36;100.00
67052;BME280;53957;47.222;18.670;2023-04-26T02:25:09;99688.56;;;7.29;100.00
67052;BME280;53957;47.222;18.670;2023-04-26T02:28:14;99677.12;;;7.38;100.00
67052;BME280;53957;47.222;18.670;2023-04-26T02:31:17;99679.59;;;7.19;100.00
67052;BME280;53957;47.222;18.670;2023-04-26T02:34:23;99682.28;;;7.14;100.00
67052;BME280;53957;47.222;18.670;2023-04-26T02:37:26;99685.22;;;7.07;100.00
67052;BME280;53957;47.222;18.670;2023-04-26T02:40:29;99687.91;;;6.97;100.00
67052;BME280;53957;47.222;18.670;2023-04-26T02:43:32;99684.19;;;6.98;100.00
67052;BME280;53957;47.222;18.670;2023-04-26T02:46:35;99682.66;;;6.87;100.00
67052;BME280;53957;47.222;18.670;2023-04-26T02:49:40;99695.13;;;6.76;100.00
67052;BME280;53957;47.222;18.670;2023-04-26T02:52:43;99699.38;;;6.77;100.00
67052;BME280;53957;47.222;18.670;2023-04-26T02:55:46;99701.25;;;6.66;100.00
67052;BME280;53957;47.222;18.670;2023-04-26T02:58:49;99715.09;;;6.42;100.00
67052;BME280;53957;47.222;18.670;2023-04-26T03:01:52;99712.16;;;6.44;100.00
67052;BME280;53957;47.222;18.670;2023-04-26T03:04:55;99719.06;;;6.45;100.00
67052;BME280;53957;47.222;18.670;2023-04-26T03:07:58;99715.62;;;6.29;100.00
67052;BME280;53957;47.222;18.670;2023-04-26T03:11:01;99723.28;;;6.31;100.00
67052;BME280;53957;47.222;18.670;2023-04-26T03:14:05;99720.41;;;6.32;100.00
67052;BME280;53957;47.222;18.670;2023-04-26T03:17:08;99725.41;;;6.23;100.00
67052;BME280;53957;47.222;18.670;2023-04-26T03:20:11;99742.91;;;6.14;100.00
67052;BME280;53957;47.222;18.670;2023-04-26T03:23:15;99739.97;;;6.16;100.00
67052;BME280;53957;47.222;18.670;2023-04-26T03:26:18;99740.00;;;6.00;100.00
67052;BME280;53957;47.222;18.670;2023-04-26T03:29:21;99742.84;;;5.93;100.00
67052;BME280;53957;47.222;18.670;2023-04-26T03:32:24;99736.00;;;5.97;100.00
67052;BME280;53957;47.222;18.670;2023-04-26T03:35:27;99749.47;;;5.96;100.00
67052;BME280;53957;47.222;18.670;2023-04-26T03:38:30;99742.56;;;5.95;100.00
67052;BME280;53957;47.222;18.670;2023-04-26T03:41:33;99736.81;;;6.03;100.00
67052;BME280;53957;47.222;18.670;2023-04-26T03:44:38;99737.84;;;6.07;100.00
67052;BME280;53957;47.222;18.670;2023-04-26T03:47:41;99741.56;;;6.01;100.00
67052;BME280;53957;47.222;18.670;2023-04-26T03:50:44;99747.94;;;6.10;100.00
67052;BME280;53957;47.222;18.670;2023-04-26T03:53:47;99751.38;;;6.16;100.00
67052;BME280;53957;47.222;18.670;2023-04-26T03:56:50;99753.78;;;6.12;100.00
67052;BME280;53957;47.222;18.670;2023-04-26T03:59:54;99758.00;;;6.19;100.00
67052;BME280;53957;47.222;18.670;2023-04-26T04:02:56;99757.97;;;6.08;100.00
67052;BME280;53957;47.222;18.670;2023-04-26T04:06:00;99765.41;;;6.06;100.00
67052;BME280;53957;47.222;18.670;2023-04-26T04:09:04;99779.69;;;6.05;100.00
67052;BME280;53957;47.222;18.670;2023-04-26T04:12:10;99782.63;;;6.09;100.00
67052;BME280;53957;47.222;18.670;2023-04-26T04:15:13;99788.47;;;6.21;100.00
67052;BME280;53957;47.222;18.670;2023-04-26T04:18:18;99792.41;;;6.08;100.00
67052;BME280;53957;47.222;18.670;2023-04-26T04:21:21;99795.59;;;6.16;100.00
67052;BME280;53957;47.222;18.670;2023-04-26T04:24:24;99801.94;;;6.09;100.00
67052;BME280;53957;47.222;18.670;2023-04-26T04:27:27;99820.25;;;6.42;100.00
67052;BME280;53957;47.222;18.670;2023-04-26T04:30:30;99813.62;;;6.50;100.00
67052;BME280;53957;47.222;18.670;2023-04-26T04:33:35;99821.03;;;6.84;100.00
67052;BME280;53957;47.222;18.670;2023-04-26T04:36:38;99831.88;;;6.92;100.00
67052;BME280;53957;47.222;18.670;2023-04-26T04:39:42;99819.38;;;7.24;100.00
67052;BME280;53957;47.222;18.670;2023-04-26T04:42:46;99820.38;;;7.33;100.00
67052;BME280;53957;47.222;18.670;2023-04-26T04:45:49;99824.13;;;7.27;100.00
67052;BME280;53957;47.222;18.670;2023-04-26T04:48:52;99818.25;;;7.40;100.00
67052;BME280;53957;47.222;18.670;2023-04-26T04:51:55;99827.63;;;7.83;100.00
67052;BME280;53957;47.222;18.670;2023-04-26T04:54:59;99836.94;;;8.25;100.00
67052;BME280;53957;47.222;18.670;2023-04-26T04:58:03;99840.66;;;8.24;100.00
67052;BME280;53957;47.222;18.670;2023-04-26T05:01:06;99828.56;;;8.82;98.96
67052;BME280;53957;47.222;18.670;2023-04-26T05:04:10;99843.06;;;9.67;94.03
67052;BME280;53957;47.222;18.670;2023-04-26T05:07:14;99838.34;;;9.64;93.26
67052;BME280;53957;47.222;18.670;2023-04-26T05:10:20;99852.62;;;10.50;87.85
67052;BME280;53957;47.222;18.670;2023-04-26T05:13:24;99857.75;;;9.41;92.28
67052;BME280;53957;47.222;18.670;2023-04-26T05:16:27;99857.19;;;9.44;92.90
67052;BME280;53957;47.222;18.670;2023-04-26T05:19:30;99859.19;;;10.39;89.50
67052;BME280;53957;47.222;18.670;2023-04-26T05:22:33;99854.78;;;10.29;88.74
67052;BME280;53957;47.222;18.670;2023-04-26T05:25:39;99848.63;;;9.71;90.52
67052;BME280;53957;47.222;18.670;2023-04-26T05:28:43;99856.87;;;9.94;89.78
67052;BME280;53957;47.222;18.670;2023-04-26T05:31:46;99853.00;;;10.05;88.02
67052;BME280;53957;47.222;18.670;2023-04-26T05:34:51;99869.38;;;11.03;82.51
67052;BME280;53957;47.222;18.670;2023-04-26T05:37:54;99863.66;;;11.23;81.57
67052;BME280;53957;47.222;18.670;2023-04-26T05:40:58;99866.81;;;10.98;80.89
67052;BME280;53957;47.222;18.670;2023-04-26T05:44:02;99868.75;;;10.59;81.29
67052;BME280;53957;47.222;18.670;2023-04-26T05:47:07;99862.38;;;10.74;83.14
67052;BME280;53957;47.222;18.670;2023-04-26T05:50:10;99874.72;;;10.70;81.24
67052;BME280;53957;47.222;18.670;2023-04-26T05:53:14;99870.56;;;11.24;77.00
67052;BME280;53957;47.222;18.670;2023-04-26T05:56:18;99865.56;;;10.90;81.81
67052;BME280;53957;47.222;18.670;2023-04-26T05:59:21;99877.53;;;11.53;78.37
67052;BME280;53957;47.222;18.670;2023-04-26T06:02:24;99877.09;;;12.02;75.65
67052;BME280;53957;47.222;18.670;2023-04-26T06:05:28;99880.09;;;12.60;73.63
67052;BME280;53957;47.222;18.670;2023-04-26T06:08:31;99890.66;;;12.87;68.85
67052;BME280;53957;47.222;18.670;2023-04-26T06:11:35;99890.47;;;13.07;67.84
67052;BME280;53957;47.222;18.670;2023-04-26T06:14:38;99887.75;;;13.69;62.20
67052;BME280;53957;47.222;18.670;2023-04-26T06:17:41;99901.25;;;13.56;64.17
67052;BME280;53957;47.222;18.670;2023-04-26T06:20:45;99901.78;;;13.35;62.61
67052;BME280;53957;47.222;18.670;2023-04-26T06:23:49;99902.63;;;13.44;63.92
67052;BME280;53957;47.222;18.670;2023-04-26T06:27:01;99904.72;;;14.40;60.33
67052;BME280;53957;47.222;18.670;2023-04-26T06:30:05;99918.94;;;14.49;59.86
67052;BME280;53957;47.222;18.670;2023-04-26T06:33:10;99901.87;;;13.52;61.99
67052;BME280;53957;47.222;18.670;2023-04-26T06:36:13;99911.19;;;14.30;58.62
67052;BME280;53957;47.222;18.670;2023-04-26T06:39:16;99906.34;;;13.66;57.49
67052;BME280;53957;47.222;18.670;2023-04-26T06:42:20;99918.56;;;14.07;59.08
67052;BME280;53957;47.222;18.670;2023-04-26T06:45:23;99935.13;;;14.09;56.57
67052;BME280;53957;47.222;18.670;2023-04-26T06:48:26;99923.50;;;14.31;57.44
67052;BME280;53957;47.222;18.670;2023-04-26T06:51:33;99936.75;;;14.45;55.64
67052;BME280;53957;47.222;18.670;2023-04-26T06:54:36;99932.09;;;15.25;55.21
67052;BME280;53957;47.222;18.670;2023-04-26T06:57:55;99935.47;;;14.43;55.27
67052;BME280;53957;47.222;18.670;2023-04-26T07:00:58;99930.59;;;14.62;55.39
67052;BME280;53957;47.222;18.670;2023-04-26T07:04:02;99934.38;;;14.61;55.34
67052;BME280;53957;47.222;18.670;2023-04-26T07:07:06;99938.19;;;15.43;52.10
67052;BME280;53957;47.222;18.670;2023-04-26T07:10:09;99940.84;;;14.60;56.04
67052;BME280;53957;47.222;18.670;2023-04-26T07:13:13;99948.13;;;14.86;54.64
67052;BME280;53957;47.222;18.670;2023-04-26T07:16:16;99953.03;;;14.84;54.27
67052;BME280;53957;47.222;18.670;2023-04-26T07:19:20;99962.31;;;15.04;52.36
67052;BME280;53957;47.222;18.670;2023-04-26T07:23:23;99953.84;;;14.67;56.13
67052;BME280;53957;47.222;18.670;2023-04-26T07:26:26;99964.41;;;14.90;54.72
67052;BME280;53957;47.222;18.670;2023-04-26T07:29:28;99966.41;;;14.31;57.45
67052;BME280;53957;47.222;18.670;2023-04-26T07:32:32;99976.25;;;13.87;56.96
67052;BME280;53957;47.222;18.670;2023-04-26T07:35:35;99976.22;;;14.45;56.98
67052;BME280;53957;47.222;18.670;2023-04-26T07:38:38;99986.34;;;15.09;51.81
67052;BME280;53957;47.222;18.670;2023-04-26T07:41:40;99969.87;;;14.23;52.31
67052;BME280;53957;47.222;18.670;2023-04-26T07:44:47;99976.25;;;15.06;48.50
67052;BME280;53957;47.222;18.670;2023-04-26T07:47:50;99979.84;;;14.58;51.71
67052;BME280;53957;47.222;18.670;2023-04-26T07:50:54;99971.13;;;14.17;48.74
67052;BME280;53957;47.222;18.670;2023-04-26T07:54:00;99992.69;;;14.78;47.60
67052;BME280;53957;47.222;18.670;2023-04-26T07:57:03;99971.50;;;14.59;50.45
67052;BME280;53957;47.222;18.670;2023-04-26T08:00:06;99996.78;;;14.76;49.01
67052;BME280;53957;47.222;18.670;2023-04-26T08:03:14;99993.78;;;14.86;47.36
67052;BME280;53957;47.222;18.670;2023-04-26T08:06:19;99994.19;;;14.44;45.45
67052;BME280;53957;47.222;18.670;2023-04-26T08:09:22;99989.62;;;14.36;47.18
67052;BME280;53957;47.222;18.670;2023-04-26T08:12:25;99988.88;;;14.62;47.19
67052;BME280;53957;47.222;18.670;2023-04-26T08:15:28;99987.47;;;14.82;45.06
67052;BME280;53957;47.222;18.670;2023-04-26T08:18:31;99992.50;;;14.84;47.08
67052;BME280;53957;47.222;18.670;2023-04-26T08:21:34;99989.00;;;14.57;48.17
67052;BME280;53957;47.222;18.670;2023-04-26T08:24:39;100002.47;;;14.92;46.58
67052;BME280;53957;47.222;18.670;2023-04-26T08:27:42;99988.19;;;13.72;46.16
67052;BME280;53957;47.222;18.670;2023-04-26T08:30:47;100004.25;;;13.41;45.22
67052;BME280;53957;47.222;18.670;2023-04-26T08:33:50;99996.19;;;14.12;44.68
67052;BME280;53957;47.222;18.670;2023-04-26T08:36:53;100002.84;;;14.24;45.43
67052;BME280;53957;47.222;18.670;2023-04-26T08:39:56;99998.53;;;14.72;42.71
67052;BME280;53957;47.222;18.670;2023-04-26T08:42:59;100006.09;;;14.96;42.09
67052;BME280;53957;47.222;18.670;2023-04-26T08:46:06;100010.22;;;14.76;43.00
67052;BME280;53957;47.222;18.670;2023-04-26T08:49:34;100002.25;;;15.32;45.55
67052;BME280;53957;47.222;18.670;2023-04-26T10:51:06;99991.59;;;13.64;38.88
67052;BME280;53957;47.222;18.670;2023-04-26T10:54:10;99997.25;;;14.87;37.96
67052;BME280;53957;47.222;18.670;2023-04-26T10:57:13;99990.03;;;14.12;40.19
67052;BME280;53957;47.222;18.670;2023-04-26T11:00:18;99998.66;;;15.02;39.76
67052;BME280;53957;47.222;18.670;2023-04-26T11:03:22;100000.66;;;15.87;36.22
67052;BME280;53957;47.222;18.670;2023-04-26T11:06:26;100003.34;;;15.40;35.84
67052;BME280;53957;47.222;18.670;2023-04-26T11:09:49;99993.87;;;15.81;35.50
67052;BME280;53957;47.222;18.670;2023-04-26T11:13:10;99994.50;;;14.43;36.94
67052;BME280;53957;47.222;18.670;2023-04-26T11:16:16;99985.37;;;14.61;37.58
67052;BME280;53957;47.222;18.670;2023-04-26T11:19:19;99989.97;;;13.85;36.76
67052;BME280;53957;47.222;18.670;2023-04-26T11:22:22;99995.97;;;13.51;38.98
67052;BME280;53957;47.222;18.670;2023-04-26T11:25:28;99992.22;;;13.61;40.16
67052;BME280;53957;47.222;18.670;2023-04-26T11:28:32;100007.78;;;13.50;41.31
67052;BME280;53957;47.222;18.670;2023-04-26T11:31:36;100002.72;;;13.26;41.02
67052;BME280;53957;47.222;18.670;2023-04-26T11:34:39;99998.47;;;13.02;39.22
67052;BME280;53957;47.222;18.670;2023-04-26T11:37:44;100000.19;;;13.83;37.90
67052;BME280;53957;47.222;18.670;2023-04-26T11:41:03;99998.12;;;14.38;38.31
67052;BME280;53957;47.222;18.670;2023-04-26T11:44:06;100004.91;;;15.50;36.92
67052;BME280;53957;47.222;18.670;2023-04-26T11:47:09;100007.06;;;15.00;36.16
67052;BME280;53957;47.222;18.670;2023-04-26T11:50:13;100006.31;;;14.15;39.00
67052;BME280;53957;47.222;18.670;2023-04-26T11:53:17;100019.63;;;13.58;39.49
67052;BME280;53957;47.222;18.670;2023-04-26T11:56:20;100011.97;;;13.19;40.46
67052;BME280;53957;47.222;18.670;2023-04-26T11:59:25;100004.09;;;13.68;37.05
67052;BME280;53957;47.222;18.670;2023-04-26T12:02:29;99999.09;;;14.33;37.57
67052;BME280;53957;47.222;18.670;2023-04-26T12:05:32;100005.53;;;14.15;36.55
67052;BME280;53957;47.222;18.670;2023-04-26T12:08:35;100002.44;;;13.27;36.92
67052;BME280;53957;47.222;18.670;2023-04-26T12:11:39;100003.59;;;13.66;37.64
67052;BME280;53957;47.222;18.670;2023-04-26T12:14:42;100005.50;;;13.43;39.01
67052;BME280;53957;47.222;18.670;2023-04-26T12:17:51;99996.38;;;13.44;38.84
67052;BME280;53957;47.222;18.670;2023-04-26T12:20:59;99999.84;;;14.16;34.32
67052;BME280;53957;47.222;18.670;2023-04-26T12:24:02;99996.94;;;14.71;37.21
67052;BME280;53957;47.222;18.670;2023-04-26T12:27:06;100001.47;;;13.46;34.79
67052;BME280;53957;47.222;18.670;2023-04-26T12:30:09;100001.91;;;13.71;35.55
67052;BME280;53957;47.222;18.670;2023-04-26T12:33:12;100000.97;;;13.21;36.92
67052;BME280;53957;47.222;18.670;2023-04-26T12:36:19;99993.97;;;13.65;36.84
67052;BME280;53957;47.222;18.670;2023-04-26T12:39:22;100010.88;;;13.20;38.00
67052;BME280;53957;47.222;18.670;2023-04-26T12:42:25;100006.28;;;12.76;40.19
67052;BME280;53957;47.222;18.670;2023-04-26T12:45:28;100008.78;;;12.95;42.20
67052;BME280;53957;47.222;18.670;2023-04-26T12:48:32;100024.34;;;13.07;40.46
67052;BME280;53957;47.222;18.670;2023-04-26T13:17:29;100035.41;;;12.27;42.06
67052;BME280;53957;47.222;18.670;2023-04-26T13:20:33;100028.44;;;12.39;42.32
67052;BME280;53957;47.222;18.670;2023-04-26T13:23:36;100038.00;;;12.04;42.94
67052;BME280;53957;47.222;18.670;2023-04-26T13:26:39;100047.75;;;11.95;42.63
67052;BME280;53957;47.222;18.670;2023-04-26T13:29:42;100048.06;;;12.07;44.27
67052;BME280;53957;47.222;18.670;2023-04-26T13:32:44;100052.09;;;12.60;42.94
67052;BME280;53957;47.222;18.670;2023-04-26T13:35:48;100036.09;;;13.42;41.01
67052;BME280;53957;47.222;18.670;2023-04-26T13:38:51;100036.94;;;13.29;40.34
67052;BME280;53957;47.222;18.670;2023-04-26T13:41:54;100046.91;;;13.14;43.67
67052;BME280;53957;47.222;18.670;2023-04-26T13:44:58;100036.69;;;13.39;42.81
67052;BME280;53957;47.222;18.670;2023-04-26T13:48:01;100042.28;;;13.51;41.64
67052;BME280;53957;47.222;18.670;2023-04-26T13:51:05;100037.66;;;13.66;43.05
67052;BME280;53957;47.222;18.670;2023-04-26T13:54:08;100033.63;;;13.32;41.78
67052;BME280;53957;47.222;18.670;2023-04-26T13:57:13;100040.69;;;12.68;42.31
67052;BME280;53957;47.222;18.670;2023-04-26T14:00:16;100037.37;;;12.49;44.27
67052;BME280;53957;47.222;18.670;2023-04-26T14:03:24;100057.09;;;12.39;43.17
67052;BME280;53957;47.222;18.670;2023-04-26T14:06:28;100056.41;;;12.05;44.85
67052;BME280;53957;47.222;18.670;2023-04-26T14:09:31;100058.97;;;12.24;44.78
67052;BME280;53957;47.222;18.670;2023-04-26T14:12:36;100061.94;;;12.23;47.09
67052;BME280;53957;47.222;18.670;2023-04-26T14:15:44;100054.88;;;11.85;45.12
67052;BME280;53957;47.222;18.670;2023-04-26T14:18:46;100061.19;;;11.89;45.18
67052;BME280;53957;47.222;18.670;2023-04-26T14:21:50;100059.50;;;11.93;43.03
67052;BME280;53957;47.222;18.670;2023-04-26T14:24:53;100047.66;;;12.42;42.79
67052;BME280;53957;47.222;18.670;2023-04-26T14:27:56;100053.59;;;12.52;40.54
67052;BME280;53957;47.222;18.670;2023-04-26T14:30:59;100059.69;;;12.16;38.99
67052;BME280;53957;47.222;18.670;2023-04-26T14:34:02;100043.69;;;12.53;37.46
67052;BME280;53957;47.222;18.670;2023-04-26T14:37:05;100055.41;;;12.01;40.34
67052;BME280;53957;47.222;18.670;2023-04-26T14:40:09;100067.28;;;11.62;38.68
67052;BME280;53957;47.222;18.670;2023-04-26T14:43:14;100060.28;;;11.80;39.47
67052;BME280;53957;47.222;18.670;2023-04-26T14:46:17;100059.69;;;11.36;40.98
67052;BME280;53957;47.222;18.670;2023-04-26T14:49:20;100058.00;;;11.40;42.19
67052;BME280;53957;47.222;18.670;2023-04-26T14:52:23;100064.28;;;11.50;44.01
67052;BME280;53957;47.222;18.670;2023-04-26T14:55:28;100071.37;;;11.40;42.75
67052;BME280;53957;47.222;18.670;2023-04-26T14:58:31;100072.53;;;12.00;43.01
67052;BME280;53957;47.222;18.670;2023-04-26T15:01:37;100055.31;;;12.48;43.92
67052;BME280;53957;47.222;18.670;2023-04-26T15:04:40;100071.72;;;12.55;41.80
67052;BME280;53957;47.222;18.670;2023-04-26T15:07:44;100069.38;;;12.40;42.42
67052;BME280;53957;47.222;18.670;2023-04-26T15:10:47;100068.00;;;12.29;41.75
67052;BME280;53957;47.222;18.670;2023-04-26T15:13:51;100073.81;;;12.31;40.94
67052;BME280;53957;47.222;18.670;2023-04-26T15:16:54;100080.06;;;11.98;42.95
67052;BME280;53957;47.222;18.670;2023-04-26T15:19:57;100078.41;;;11.83;42.33
67052;BME280;53957;47.222;18.670;2023-04-26T15:23:00;100076.00;;;12.01;44.43
67052;BME280;53957;47.222;18.670;2023-04-26T15:26:03;100081.44;;;12.10;43.13
67052;BME280;53957;47.222;18.670;2023-04-26T15:29:06;100068.28;;;12.13;42.96
67052;BME280;53957;47.222;18.670;2023-04-26T15:32:09;100071.47;;;11.82;43.51
67052;BME280;53957;47.222;18.670;2023-04-26T15:35:12;100064.53;;;11.81;42.73
67052;BME280;53957;47.222;18.670;2023-04-26T15:38:16;100066.22;;;11.77;44.70
67052;BME280;53957;47.222;18.670;2023-04-26T15:41:19;100074.47;;;11.48;42.03
67052;BME280;53957;47.222;18.670;2023-04-26T15:44:22;100077.09;;;11.34;43.01
67052;BME280;53957;47.222;18.670;2023-04-26T15:47:25;100078.38;;;11.36;44.35
67052;BME280;53957;47.222;18.670;2023-04-26T15:50:29;100076.56;;;11.51;44.23
67052;BME280;53957;47.222;18.670;2023-04-26T15:53:32;100076.28;;;11.66;44.75
67052;BME280;53957;47.222;18.670;2023-04-26T15:56:35;100086.09;;;11.71;43.57
67052;BME280;53957;47.222;18.670;2023-04-26T15:59:38;100075.84;;;11.45;44.44
67052;BME280;53957;47.222;18.670;2023-04-26T16:02:41;100083.84;;;11.45;42.92
67052;BME280;53957;47.222;18.670;2023-04-26T16:05:47;100084.63;;;11.12;44.23
67052;BME280;53957;47.222;18.670;2023-04-26T16:08:50;100085.25;;;11.04;43.17
67052;BME280;53957;47.222;18.670;2023-04-26T16:11:53;100090.88;;;11.03;42.86
67052;BME280;53957;47.222;18.670;2023-04-26T16:14:56;100088.06;;;11.13;39.27
67052;BME280;53957;47.222;18.670;2023-04-26T16:17:59;100090.09;;;11.21;41.71
67052;BME280;53957;47.222;18.670;2023-04-26T16:21:06;100090.34;;;11.20;41.51
67052;BME280;53957;47.222;18.670;2023-04-26T16:24:11;100083.59;;;11.27;39.85
67052;BME280;53957;47.222;18.670;2023-04-26T16:27:14;100075.56;;;11.08;42.06
67052;BME280;53957;47.222;18.670;2023-04-26T16:30:17;100090.38;;;11.01;42.25
67052;BME280;53957;47.222;18.670;2023-04-26T16:33:20;100078.16;;;11.14;41.39
67052;BME280;53957;47.222;18.670;2023-04-26T16:36:25;100085.63;;;11.17;41.97
67052;BME280;53957;47.222;18.670;2023-04-26T16:39:30;100084.03;;;10.97;42.81
67052;BME280;53957;47.222;18.670;2023-04-26T16:42:33;100089.00;;;10.84;46.12
67052;BME280;53957;47.222;18.670;2023-04-26T16:45:36;100088.50;;;10.58;44.15
67052;BME280;53957;47.222;18.670;2023-04-26T16:48:39;100099.19;;;10.58;45.99
67052;BME280;53957;47.222;18.670;2023-04-26T16:51:42;100100.38;;;10.46;44.91
67052;BME280;53957;47.222;18.670;2023-04-26T16:54:59;100102.28;;;10.46;44.82
67052;BME280;53957;47.222;18.670;2023-04-26T16:58:03;100103.12;;;10.41;45.25
67052;BME280;53957;47.222;18.670;2023-04-26T17:01:09;100106.44;;;10.28;44.22
67052;BME280;53957;47.222;18.670;2023-04-26T17:04:12;100110.97;;;10.27;45.24
67052;BME280;53957;47.222;18.670;2023-04-26T17:07:15;100125.69;;;10.20;46.11
67052;BME280;53957;47.222;18.670;2023-04-26T17:10:19;100124.38;;;10.17;44.07
67052;BME280;53957;47.222;18.670;2023-04-26T17:13:22;100118.16;;;10.03;45.55
67052;BME280;53957;47.222;18.670;2023-04-26T17:16:25;100119.53;;;9.95;45.14
67052;BME280;53957;47.222;18.670;2023-04-26T17:19:28;100116.69;;;9.86;46.06
67052;BME280;53957;47.222;18.670;2023-04-26T17:22:31;100122.66;;;9.73;45.54
67052;BME280;53957;47.222;18.670;2023-04-26T17:25:34;100117.94;;;9.64;47.25
67052;BME280;53957;47.222;18.670;2023-04-26T17:28:37;100133.47;;;9.47;45.37
67052;BME280;53957;47.222;18.670;2023-04-26T17:31:40;100129.88;;;9.32;46.34
67052;BME280;53957;47.222;18.670;2023-04-26T17:34:43;100140.56;;;9.22;48.66
67052;BME280;53957;47.222;18.670;2023-04-26T17:37:47;100145.69;;;9.08;49.38
67052;BME280;53957;47.222;18.670;2023-04-26T17:40:54;100146.50;;;9.09;49.00
67052;BME280;53957;47.222;18.670;2023-04-26T17:43:57;100143.66;;;8.90;48.93
67052;BME280;53957;47.222;18.670;2023-04-26T17:46:59;100149.25;;;8.88;50.81
67052;BME280;53957;47.222;18.670;2023-04-26T17:50:03;100150.84;;;8.84;50.63
67052;BME280;53957;47.222;18.670;2023-04-26T17:53:08;100155.72;;;8.61;49.67
67052;BME280;53957;47.222;18.670;2023-04-26T17:56:11;100162.16;;;8.40;53.43
67052;BME280;53957;47.222;18.670;2023-04-26T17:59:14;100167.47;;;8.50;53.05
67052;BME280;53957;47.222;18.670;2023-04-26T18:02:17;100165.59;;;8.40;53.78
67052;BME280;53957;47.222;18.670;2023-04-26T18:05:21;100170.09;;;8.45;52.60
67052;BME280;53957;47.222;18.670;2023-04-26T18:08:25;100174.12;;;8.21;55.00
67052;BME280;53957;47.222;18.670;2023-04-26T18:11:29;100183.69;;;8.12;54.73
67052;BME280;53957;47.222;18.670;2023-04-26T18:14:31;100179.16;;;7.97;56.57
67052;BME280;53957;47.222;18.670;2023-04-26T18:17:34;100179.16;;;7.97;55.75
67052;BME280;53957;47.222;18.670;2023-04-26T18:20:37;100188.75;;;7.88;55.76
67052;BME280;53957;47.222;18.670;2023-04-26T18:23:40;100197.22;;;7.90;56.75